sensor_id;sensor_type;location;lat;lon;timestamp;temperature;humidity
7574;DHT22;3828;48.922;9.116;2022-07-29T00:01:37;18.90;99.90
7574;DHT22;3828;48.922;9.116;2022-07-29T00:04:04;19.30;99.90
7574;DHT22;3828;48.922;9.116;2022-07-29T00:06:31;18.80;99.90
7574;DHT22;3828;48.922;9.116;2022-07-29T00:08:59;18.80;99.90
7574;DHT22;3828;48.922;9.116;2022-07-29T00:11:26;18.80;99.90
7574;DHT22;3828;48.922;9.116;2022-07-29T00:13:53;19.30;99.90
7574;DHT22;3828;48.922;9.116;2022-07-29T00:16:19;18.80;99.90
7574;DHT22;3828;48.922;9.116;2022-07-29T00:18:46;20.60;99.90
7574;DHT22;3828;48.922;9.116;2022-07-29T00:21:13;18.70;99.90
7574;DHT22;3828;48.922;9.116;2022-07-29T00:23:40;18.70;99.90
7574;DHT22;3828;48.922;9.116;2022-07-29T00:26:08;18.60;99.90
7574;DHT22;3828;48.922;9.116;2022-07-29T00:28:35;19.40;99.90
7574;DHT22;3828;48.922;9.116;2022-07-29T00:31:02;18.50;99.90
7574;DHT22;3828;48.922;9.116;2022-07-29T00:33:29;18.50;99.90
7574;DHT22;3828;48.922;9.116;2022-07-29T00:35:56;18.50;99.90
7574;DHT22;3828;48.922;9.116;2022-07-29T00:38:22;18.60;99.90
7574;DHT22;3828;48.922;9.116;2022-07-29T00:40:49;18.70;99.90
7574;DHT22;3828;48.922;9.116;2022-07-29T00:43:17;18.60;99.90
7574;DHT22;3828;48.922;9.116;2022-07-29T00:45:44;18.50;99.90
7574;DHT22;3828;48.922;9.116;2022-07-29T00:48:11;19.00;99.90
7574;DHT22;3828;48.922;9.116;2022-07-29T00:50:38;18.50;99.90
7574;DHT22;3828;48.922;9.116;2022-07-29T00:53:06;18.50;99.90
7574;DHT22;3828;48.922;9.116;2022-07-29T00:55:33;20.70;99.90
7574;DHT22;3828;48.922;9.116;2022-07-29T00:58:00;18.50;99.90
7574;DHT22;3828;48.922;9.116;2022-07-29T01:00:30;21.70;99.90
7574;DHT22;3828;48.922;9.116;2022-07-29T01:02:57;18.50;99.90
7574;DHT22;3828;48.922;9.116;2022-07-29T01:05:26;19.00;99.90
7574;DHT22;3828;48.922;9.116;2022-07-29T01:07:54;18.40;99.90
7574;DHT22;3828;48.922;9.116;2022-07-29T01:10:22;18.30;99.90
7574;DHT22;3828;48.922;9.116;2022-07-29T01:12:51;21.50;99.90
7574;DHT22;3828;48.922;9.116;2022-07-29T01:15:19;18.30;99.90
7574;DHT22;3828;48.922;9.116;2022-07-29T01:17:54;18.30;99.90
7574;DHT22;3828;48.922;9.116;2022-07-29T01:20:26;18.30;99.90
7574;DHT22;3828;48.922;9.116;2022-07-29T01:23:14;20.80;99.90
7574;DHT22;3828;48.922;9.116;2022-07-29T01:25:58;18.20;99.90
7574;DHT22;3828;48.922;9.116;2022-07-29T01:29:00;18.30;99.90
7574;DHT22;3828;48.922;9.116;2022-07-29T01:31:33;18.20;99.90
7574;DHT22;3828;48.922;9.116;2022-07-29T01:34:05;18.30;99.90
7574;DHT22;3828;48.922;9.116;2022-07-29T01:36:36;18.20;99.90
7574;DHT22;3828;48.922;9.116;2022-07-29T01:39:07;20.70;99.90
7574;DHT22;3828;48.922;9.116;2022-07-29T01:41:37;20.00;99.90
7574;DHT22;3828;48.922;9.116;2022-07-29T01:44:12;18.10;99.90
7574;DHT22;3828;48.922;9.116;2022-07-29T01:46:44;18.10;99.90
7574;DHT22;3828;48.922;9.116;2022-07-29T01:49:18;21.10;99.90
7574;DHT22;3828;48.922;9.116;2022-07-29T01:51:50;18.30;99.90
7574;DHT22;3828;48.922;9.116;2022-07-29T01:54:21;21.20;99.90
7574;DHT22;3828;48.922;9.116;2022-07-29T01:56:53;20.20;99.90
7574;DHT22;3828;48.922;9.116;2022-07-29T01:59:24;18.10;99.90
7574;DHT22;3828;48.922;9.116;2022-07-29T02:01:53;18.10;99.90
7574;DHT22;3828;48.922;9.116;2022-07-29T02:04:21;18.10;99.90
7574;DHT22;3828;48.922;9.116;2022-07-29T02:06:51;18.30;99.90
7574;DHT22;3828;48.922;9.116;2022-07-29T02:09:20;20.30;99.90
7574;DHT22;3828;48.922;9.116;2022-07-29T02:11:49;18.00;99.90
7574;DHT22;3828;48.922;9.116;2022-07-29T02:14:18;18.10;99.90
7574;DHT22;3828;48.922;9.116;2022-07-29T02:16:51;18.00;99.90
7574;DHT22;3828;48.922;9.116;2022-07-29T02:19:20;17.90;99.90
7574;DHT22;3828;48.922;9.116;2022-07-29T02:21:48;18.30;99.90
7574;DHT22;3828;48.922;9.116;2022-07-29T02:24:16;18.00;99.90
7574;DHT22;3828;48.922;9.116;2022-07-29T02:26:44;20.90;99.90
7574;DHT22;3828;48.922;9.116;2022-07-29T02:29:12;21.00;99.90
7574;DHT22;3828;48.922;9.116;2022-07-29T02:31:41;17.70;99.90
7574;DHT22;3828;48.922;9.116;2022-07-29T02:34:11;17.60;99.90
7574;DHT22;3828;48.922;9.116;2022-07-29T02:36:39;17.60;99.90
7574;DHT22;3828;48.922;9.116;2022-07-29T02:39:08;18.00;99.90
7574;DHT22;3828;48.922;9.116;2022-07-29T02:41:40;17.50;99.90
7574;DHT22;3828;48.922;9.116;2022-07-29T02:44:10;17.50;99.90
7574;DHT22;3828;48.922;9.116;2022-07-29T02:46:43;17.50;99.90
7574;DHT22;3828;48.922;9.116;2022-07-29T02:49:16;17.50;99.90
7574;DHT22;3828;48.922;9.116;2022-07-29T02:51:51;18.60;99.90
7574;DHT22;3828;48.922;9.116;2022-07-29T02:54:23;18.20;99.90
7574;DHT22;3828;48.922;9.116;2022-07-29T02:56:53;17.40;99.90
7574;DHT22;3828;48.922;9.116;2022-07-29T02:59:24;17.30;99.90
7574;DHT22;3828;48.922;9.116;2022-07-29T03:01:54;18.70;99.90
7574;DHT22;3828;48.922;9.116;2022-07-29T03:04:24;17.30;99.90
7574;DHT22;3828;48.922;9.116;2022-07-29T03:06:53;17.30;99.90
7574;DHT22;3828;48.922;9.116;2022-07-29T03:09:21;18.90;99.90
7574;DHT22;3828;48.922;9.116;2022-07-29T03:11:49;17.30;99.90
7574;DHT22;3828;48.922;9.116;2022-07-29T03:14:17;17.30;99.90
7574;DHT22;3828;48.922;9.116;2022-07-29T03:16:45;20.50;99.90
7574;DHT22;3828;48.922;9.116;2022-07-29T03:19:12;19.60;99.90
7574;DHT22;3828;48.922;9.116;2022-07-29T03:21:41;17.40;99.90
7574;DHT22;3828;48.922;9.116;2022-07-29T03:24:07;18.90;99.90
7574;DHT22;3828;48.922;9.116;2022-07-29T03:26:34;17.40;99.90
7574;DHT22;3828;48.922;9.116;2022-07-29T03:29:01;19.70;99.90
7574;DHT22;3828;48.922;9.116;2022-07-29T03:31:28;17.50;99.90
7574;DHT22;3828;48.922;9.116;2022-07-29T03:33:55;17.50;99.90
7574;DHT22;3828;48.922;9.116;2022-07-29T03:36:22;17.50;99.90
7574;DHT22;3828;48.922;9.116;2022-07-29T03:38:52;17.50;99.90
7574;DHT22;3828;48.922;9.116;2022-07-29T03:41:21;17.70;99.90
7574;DHT22;3828;48.922;9.116;2022-07-29T03:43:49;17.50;99.90
7574;DHT22;3828;48.922;9.116;2022-07-29T03:46:20;17.50;99.90
7574;DHT22;3828;48.922;9.116;2022-07-29T03:48:52;17.50;99.90
7574;DHT22;3828;48.922;9.116;2022-07-29T03:51:19;17.50;99.90
7574;DHT22;3828;48.922;9.116;2022-07-29T03:53:46;17.50;99.90
7574;DHT22;3828;48.922;9.116;2022-07-29T03:56:17;17.50;99.90
7574;DHT22;3828;48.922;9.116;2022-07-29T03:58:47;17.60;99.90
7574;DHT22;3828;48.922;9.116;2022-07-29T04:01:14;17.50;99.90
7574;DHT22;3828;48.922;9.116;2022-07-29T04:03:43;17.50;99.90
7574;DHT22;3828;48.922;9.116;2022-07-29T04:06:11;17.60;99.90
7574;DHT22;3828;48.922;9.116;2022-07-29T04:08:38;17.60;99.90
7574;DHT22;3828;48.922;9.116;2022-07-29T04:11:05;17.60;99.90
7574;DHT22;3828;48.922;9.116;2022-07-29T04:13:33;20.70;99.90
7574;DHT22;3828;48.922;9.116;2022-07-29T04:16:00;17.60;99.90
7574;DHT22;3828;48.922;9.116;2022-07-29T04:18:26;17.60;99.90
7574;DHT22;3828;48.922;9.116;2022-07-29T04:20:53;17.70;99.90
7574;DHT22;3828;48.922;9.116;2022-07-29T04:23:20;17.70;99.90
7574;DHT22;3828;48.922;9.116;2022-07-29T04:25:47;18.50;99.90
7574;DHT22;3828;48.922;9.116;2022-07-29T04:28:14;17.70;99.90
7574;DHT22;3828;48.922;9.116;2022-07-29T04:30:42;17.70;99.90
7574;DHT22;3828;48.922;9.116;2022-07-29T04:33:09;18.00;99.90
7574;DHT22;3828;48.922;9.116;2022-07-29T04:35:37;17.70;99.90
7574;DHT22;3828;48.922;9.116;2022-07-29T04:38:05;20.80;99.90
7574;DHT22;3828;48.922;9.116;2022-07-29T04:40:32;17.90;99.90
7574;DHT22;3828;48.922;9.116;2022-07-29T04:42:59;17.70;99.90
7574;DHT22;3828;48.922;9.116;2022-07-29T04:45:26;19.00;99.90
7574;DHT22;3828;48.922;9.116;2022-07-29T04:47:55;17.70;99.90
7574;DHT22;3828;48.922;9.116;2022-07-29T04:50:22;17.70;99.90
7574;DHT22;3828;48.922;9.116;2022-07-29T04:52:49;17.80;99.90
7574;DHT22;3828;48.922;9.116;2022-07-29T04:55:16;19.10;99.90
7574;DHT22;3828;48.922;9.116;2022-07-29T04:57:42;17.80;99.90
7574;DHT22;3828;48.922;9.116;2022-07-29T05:00:10;21.10;99.90
7574;DHT22;3828;48.922;9.116;2022-07-29T05:02:37;17.90;99.90
7574;DHT22;3828;48.922;9.116;2022-07-29T05:05:06;19.20;99.90
7574;DHT22;3828;48.922;9.116;2022-07-29T05:07:33;18.10;99.90
7574;DHT22;3828;48.922;9.116;2022-07-29T05:10:00;18.20;99.90
7574;DHT22;3828;48.922;9.116;2022-07-29T05:12:27;19.00;99.90
7574;DHT22;3828;48.922;9.116;2022-07-29T05:14:54;18.40;99.90
7574;DHT22;3828;48.922;9.116;2022-07-29T05:17:21;18.50;99.90
7574;DHT22;3828;48.922;9.116;2022-07-29T05:19:47;18.60;99.90
7574;DHT22;3828;48.922;9.116;2022-07-29T05:22:18;18.70;99.90
7574;DHT22;3828;48.922;9.116;2022-07-29T05:24:44;18.80;99.90
7574;DHT22;3828;48.922;9.116;2022-07-29T05:27:11;19.20;99.90
7574;DHT22;3828;48.922;9.116;2022-07-29T05:29:38;19.10;99.90
7574;DHT22;3828;48.922;9.116;2022-07-29T05:32:05;21.80;99.90
7574;DHT22;3828;48.922;9.116;2022-07-29T05:34:32;19.30;99.90
7574;DHT22;3828;48.922;9.116;2022-07-29T05:36:59;19.40;99.90
7574;DHT22;3828;48.922;9.116;2022-07-29T05:39:27;19.50;99.90
7574;DHT22;3828;48.922;9.116;2022-07-29T05:41:53;19.70;99.90
7574;DHT22;3828;48.922;9.116;2022-07-29T05:44:20;19.90;99.90
7574;DHT22;3828;48.922;9.116;2022-07-29T05:46:47;20.00;99.90
7574;DHT22;3828;48.922;9.116;2022-07-29T05:49:14;20.20;99.90
7574;DHT22;3828;48.922;9.116;2022-07-29T05:51:40;20.20;99.90
7574;DHT22;3828;48.922;9.116;2022-07-29T05:54:07;20.40;99.90
7574;DHT22;3828;48.922;9.116;2022-07-29T05:56:37;20.50;99.90
7574;DHT22;3828;48.922;9.116;2022-07-29T05:59:03;20.60;99.90
7574;DHT22;3828;48.922;9.116;2022-07-29T06:01:30;20.70;99.90
7574;DHT22;3828;48.922;9.116;2022-07-29T06:03:57;20.90;99.90
7574;DHT22;3828;48.922;9.116;2022-07-29T06:06:24;20.80;99.90
7574;DHT22;3828;48.922;9.116;2022-07-29T06:08:51;20.80;99.90
7574;DHT22;3828;48.922;9.116;2022-07-29T06:11:18;20.80;99.90
7574;DHT22;3828;48.922;9.116;2022-07-29T06:13:46;20.80;99.90
7574;DHT22;3828;48.922;9.116;2022-07-29T06:16:12;22.30;99.90
7574;DHT22;3828;48.922;9.116;2022-07-29T06:18:39;21.10;99.90
7574;DHT22;3828;48.922;9.116;2022-07-29T06:21:08;21.20;99.90
7574;DHT22;3828;48.922;9.116;2022-07-29T06:23:35;21.30;99.90
7574;DHT22;3828;48.922;9.116;2022-07-29T06:26:02;21.30;99.90
7574;DHT22;3828;48.922;9.116;2022-07-29T06:28:29;21.40;99.90
7574;DHT22;3828;48.922;9.116;2022-07-29T06:30:57;21.50;99.90
7574;DHT22;3828;48.922;9.116;2022-07-29T06:33:24;21.60;99.90
7574;DHT22;3828;48.922;9.116;2022-07-29T06:35:50;21.60;99.90
7574;DHT22;3828;48.922;9.116;2022-07-29T06:38:17;21.60;99.90
7574;DHT22;3828;48.922;9.116;2022-07-29T06:40:45;23.10;99.90
7574;DHT22;3828;48.922;9.116;2022-07-29T06:43:28;21.60;99.90
7574;DHT22;3828;48.922;9.116;2022-07-29T06:45:59;22.30;99.90
7574;DHT22;3828;48.922;9.116;2022-07-29T06:48:27;21.70;99.90
7574;DHT22;3828;48.922;9.116;2022-07-29T06:50:53;21.70;99.90
7574;DHT22;3828;48.922;9.116;2022-07-29T06:53:20;24.70;99.90
7574;DHT22;3828;48.922;9.116;2022-07-29T06:55:47;21.70;99.90
7574;DHT22;3828;48.922;9.116;2022-07-29T06:58:14;24.20;99.90
7574;DHT22;3828;48.922;9.116;2022-07-29T07:00:43;21.80;99.90
7574;DHT22;3828;48.922;9.116;2022-07-29T07:03:11;23.40;99.90
7574;DHT22;3828;48.922;9.116;2022-07-29T07:05:38;23.10;99.90
7574;DHT22;3828;48.922;9.116;2022-07-29T07:08:05;22.30;99.90
7574;DHT22;3828;48.922;9.116;2022-07-29T07:10:32;24.30;99.90
7574;DHT22;3828;48.922;9.116;2022-07-29T07:12:59;22.70;99.90
7574;DHT22;3828;48.922;9.116;2022-07-29T07:15:26;23.10;99.90
7574;DHT22;3828;48.922;9.116;2022-07-29T07:17:53;23.20;99.90
7574;DHT22;3828;48.922;9.116;2022-07-29T07:20:21;23.40;99.90
7574;DHT22;3828;48.922;9.116;2022-07-29T07:22:48;23.60;99.90
7574;DHT22;3828;48.922;9.116;2022-07-29T07:25:15;23.80;99.90
7574;DHT22;3828;48.922;9.116;2022-07-29T07:27:42;24.10;99.90
7574;DHT22;3828;48.922;9.116;2022-07-29T07:30:10;24.30;99.90
7574;DHT22;3828;48.922;9.116;2022-07-29T07:32:37;24.40;99.90
7574;DHT22;3828;48.922;9.116;2022-07-29T07:35:05;24.40;99.90
7574;DHT22;3828;48.922;9.116;2022-07-29T07:37:34;24.60;99.90
7574;DHT22;3828;48.922;9.116;2022-07-29T07:40:01;24.80;99.90
7574;DHT22;3828;48.922;9.116;2022-07-29T07:42:28;25.00;99.90
7574;DHT22;3828;48.922;9.116;2022-07-29T07:44:55;25.00;99.90
7574;DHT22;3828;48.922;9.116;2022-07-29T07:47:22;25.20;99.90
7574;DHT22;3828;48.922;9.116;2022-07-29T07:49:50;25.00;99.90
7574;DHT22;3828;48.922;9.116;2022-07-29T07:52:18;24.90;99.90
7574;DHT22;3828;48.922;9.116;2022-07-29T07:54:47;25.00;99.90
7574;DHT22;3828;48.922;9.116;2022-07-29T07:57:14;24.80;99.90
7574;DHT22;3828;48.922;9.116;2022-07-29T07:59:42;25.80;99.90
7574;DHT22;3828;48.922;9.116;2022-07-29T08:02:09;25.50;99.90
7574;DHT22;3828;48.922;9.116;2022-07-29T08:04:36;25.70;99.90
7574;DHT22;3828;48.922;9.116;2022-07-29T08:07:06;25.00;99.90
7574;DHT22;3828;48.922;9.116;2022-07-29T08:09:32;25.00;99.90
7574;DHT22;3828;48.922;9.116;2022-07-29T08:12:01;24.90;99.90
7574;DHT22;3828;48.922;9.116;2022-07-29T08:14:30;25.00;99.90
7574;DHT22;3828;48.922;9.116;2022-07-29T08:16:57;25.00;99.90
7574;DHT22;3828;48.922;9.116;2022-07-29T08:19:23;25.00;99.90
7574;DHT22;3828;48.922;9.116;2022-07-29T08:21:50;24.80;99.90
7574;DHT22;3828;48.922;9.116;2022-07-29T08:24:18;26.90;99.90
7574;DHT22;3828;48.922;9.116;2022-07-29T08:27:03;25.40;99.90
7574;DHT22;3828;48.922;9.116;2022-07-29T08:29:30;25.50;99.90
7574;DHT22;3828;48.922;9.116;2022-07-29T08:31:57;25.90;99.90
7574;DHT22;3828;48.922;9.116;2022-07-29T08:34:23;26.20;99.90
7574;DHT22;3828;48.922;9.116;2022-07-29T08:36:51;26.00;99.90
7574;DHT22;3828;48.922;9.116;2022-07-29T08:39:17;26.10;99.90
7574;DHT22;3828;48.922;9.116;2022-07-29T08:41:44;26.10;99.90
7574;DHT22;3828;48.922;9.116;2022-07-29T08:44:13;26.30;99.90
7574;DHT22;3828;48.922;9.116;2022-07-29T08:46:39;26.30;99.90
7574;DHT22;3828;48.922;9.116;2022-07-29T08:49:07;26.60;99.90
7574;DHT22;3828;48.922;9.116;2022-07-29T08:51:34;26.70;99.90
7574;DHT22;3828;48.922;9.116;2022-07-29T08:54:02;26.80;99.90
7574;DHT22;3828;48.922;9.116;2022-07-29T08:56:30;27.20;99.90
7574;DHT22;3828;48.922;9.116;2022-07-29T08:58:57;26.90;99.90
7574;DHT22;3828;48.922;9.116;2022-07-29T09:01:27;27.00;99.90
7574;DHT22;3828;48.922;9.116;2022-07-29T09:03:56;27.10;99.90
7574;DHT22;3828;48.922;9.116;2022-07-29T09:06:24;27.20;99.90
7574;DHT22;3828;48.922;9.116;2022-07-29T09:08:54;27.40;99.90
7574;DHT22;3828;48.922;9.116;2022-07-29T09:11:24;27.50;99.90
7574;DHT22;3828;48.922;9.116;2022-07-29T09:13:52;27.90;99.90
7574;DHT22;3828;48.922;9.116;2022-07-29T09:16:18;29.10;99.90
7574;DHT22;3828;48.922;9.116;2022-07-29T09:18:46;26.20;99.90
7574;DHT22;3828;48.922;9.116;2022-07-29T09:21:15;28.40;99.90
7574;DHT22;3828;48.922;9.116;2022-07-29T09:24:01;28.30;99.90
7574;DHT22;3828;48.922;9.116;2022-07-29T09:26:28;28.60;99.90
7574;DHT22;3828;48.922;9.116;2022-07-29T09:28:56;28.60;99.90
7574;DHT22;3828;48.922;9.116;2022-07-29T09:31:32;28.80;99.90
7574;DHT22;3828;48.922;9.116;2022-07-29T09:34:01;28.80;99.90
7574;DHT22;3828;48.922;9.116;2022-07-29T09:36:28;29.00;99.90
7574;DHT22;3828;48.922;9.116;2022-07-29T09:38:59;29.20;99.90
7574;DHT22;3828;48.922;9.116;2022-07-29T09:41:26;28.90;99.90
7574;DHT22;3828;48.922;9.116;2022-07-29T09:43:54;29.10;99.90
7574;DHT22;3828;48.922;9.116;2022-07-29T09:46:21;29.10;99.90
7574;DHT22;3828;48.922;9.116;2022-07-29T09:49:08;29.00;99.90
7574;DHT22;3828;48.922;9.116;2022-07-29T09:51:35;29.00;99.90
7574;DHT22;3828;48.922;9.116;2022-07-29T09:54:02;29.30;99.90
7574;DHT22;3828;48.922;9.116;2022-07-29T09:56:47;29.20;99.90
7574;DHT22;3828;48.922;9.116;2022-07-29T09:59:14;29.20;99.90
7574;DHT22;3828;48.922;9.116;2022-07-29T10:01:42;29.10;99.90
7574;DHT22;3828;48.922;9.116;2022-07-29T10:04:10;29.10;99.90
7574;DHT22;3828;48.922;9.116;2022-07-29T10:06:55;29.10;99.90
7574;DHT22;3828;48.922;9.116;2022-07-29T10:09:23;29.90;99.90
7574;DHT22;3828;48.922;9.116;2022-07-29T10:12:03;29.90;99.90
7574;DHT22;3828;48.922;9.116;2022-07-29T10:14:31;30.50;99.90
7574;DHT22;3828;48.922;9.116;2022-07-29T10:16:59;30.50;99.90
7574;DHT22;3828;48.922;9.116;2022-07-29T10:19:28;30.30;99.90
7574;DHT22;3828;48.922;9.116;2022-07-29T10:21:56;30.00;99.90
7574;DHT22;3828;48.922;9.116;2022-07-29T10:24:25;30.20;99.90
7574;DHT22;3828;48.922;9.116;2022-07-29T10:26:52;30.20;99.90
7574;DHT22;3828;48.922;9.116;2022-07-29T10:29:20;30.40;99.90
7574;DHT22;3828;48.922;9.116;2022-07-29T10:31:53;30.30;99.90
7574;DHT22;3828;48.922;9.116;2022-07-29T10:34:30;29.80;99.90
7574;DHT22;3828;48.922;9.116;2022-07-29T10:37:07;30.80;99.90
7574;DHT22;3828;48.922;9.116;2022-07-29T10:39:44;29.80;99.90
7574;DHT22;3828;48.922;9.116;2022-07-29T10:42:18;30.30;99.90
7574;DHT22;3828;48.922;9.116;2022-07-29T10:44:46;30.00;99.90
7574;DHT22;3828;48.922;9.116;2022-07-29T10:47:22;30.30;99.90
7574;DHT22;3828;48.922;9.116;2022-07-29T10:49:57;30.10;99.90
7574;DHT22;3828;48.922;9.116;2022-07-29T10:52:25;29.60;99.90
7574;DHT22;3828;48.922;9.116;2022-07-29T10:55:30;29.10;99.90
7574;DHT22;3828;48.922;9.116;2022-07-29T10:58:14;29.30;99.90
7574;DHT22;3828;48.922;9.116;2022-07-29T11:00:41;29.20;99.90
7574;DHT22;3828;48.922;9.116;2022-07-29T11:03:09;28.90;99.90
7574;DHT22;3828;48.922;9.116;2022-07-29T11:05:52;28.70;99.90
7574;DHT22;3828;48.922;9.116;2022-07-29T11:08:23;28.50;99.90
7574;DHT22;3828;48.922;9.116;2022-07-29T11:11:29;28.30;99.90
7574;DHT22;3828;48.922;9.116;2022-07-29T11:13:49;28.10;99.90
7574;DHT22;3828;48.922;9.116;2022-07-29T11:16:18;28.20;99.90
7574;DHT22;3828;48.922;9.116;2022-07-29T11:19:21;28.20;99.90
7574;DHT22;3828;48.922;9.116;2022-07-29T11:21:48;28.30;99.90
7574;DHT22;3828;48.922;9.116;2022-07-29T11:24:19;28.50;99.90
7574;DHT22;3828;48.922;9.116;2022-07-29T11:27:10;29.10;99.90
7574;DHT22;3828;48.922;9.116;2022-07-29T11:29:40;29.80;99.90
7574;DHT22;3828;48.922;9.116;2022-07-29T11:32:12;30.20;99.90
7574;DHT22;3828;48.922;9.116;2022-07-29T11:34:40;30.70;99.90
7574;DHT22;3828;48.922;9.116;2022-07-29T11:37:21;30.60;99.90
7574;DHT22;3828;48.922;9.116;2022-07-29T11:40:12;30.60;99.90
7574;DHT22;3828;48.922;9.116;2022-07-29T11:42:45;30.40;99.90
7574;DHT22;3828;48.922;9.116;2022-07-29T11:45:14;30.00;99.90
7574;DHT22;3828;48.922;9.116;2022-07-29T11:47:48;29.60;99.90
7574;DHT22;3828;48.922;9.116;2022-07-29T11:50:16;29.10;99.90
7574;DHT22;3828;48.922;9.116;2022-07-29T11:52:45;29.00;99.90
7574;DHT22;3828;48.922;9.116;2022-07-29T11:55:13;29.00;99.90
7574;DHT22;3828;48.922;9.116;2022-07-29T11:57:49;29.20;99.90
7574;DHT22;3828;48.922;9.116;2022-07-29T12:00:24;29.20;99.90
7574;DHT22;3828;48.922;9.116;2022-07-29T12:02:51;28.90;99.90
7574;DHT22;3828;48.922;9.116;2022-07-29T12:05:18;28.40;99.90
7574;DHT22;3828;48.922;9.116;2022-07-29T12:07:45;28.10;99.90
7574;DHT22;3828;48.922;9.116;2022-07-29T12:10:12;28.20;99.90
7574;DHT22;3828;48.922;9.116;2022-07-29T12:12:39;28.20;99.90
7574;DHT22;3828;48.922;9.116;2022-07-29T12:15:16;28.10;99.90
7574;DHT22;3828;48.922;9.116;2022-07-29T12:17:46;28.10;99.90
7574;DHT22;3828;48.922;9.116;2022-07-29T12:20:13;27.90;99.90
7574;DHT22;3828;48.922;9.116;2022-07-29T12:22:48;27.60;99.90
7574;DHT22;3828;48.922;9.116;2022-07-29T12:25:15;28.20;99.90
7574;DHT22;3828;48.922;9.116;2022-07-29T12:27:44;27.50;99.90
7574;DHT22;3828;48.922;9.116;2022-07-29T12:30:14;27.00;99.90
7574;DHT22;3828;48.922;9.116;2022-07-29T12:32:42;26.70;99.90
7574;DHT22;3828;48.922;9.116;2022-07-29T12:35:11;26.60;99.90
7574;DHT22;3828;48.922;9.116;2022-07-29T12:37:40;26.70;99.90
7574;DHT22;3828;48.922;9.116;2022-07-29T12:40:10;26.80;99.90
7574;DHT22;3828;48.922;9.116;2022-07-29T12:42:38;26.70;99.90
7574;DHT22;3828;48.922;9.116;2022-07-29T12:45:06;26.90;99.90
7574;DHT22;3828;48.922;9.116;2022-07-29T12:47:51;27.00;99.90
7574;DHT22;3828;48.922;9.116;2022-07-29T12:50:18;27.30;99.90
7574;DHT22;3828;48.922;9.116;2022-07-29T12:52:45;27.30;99.90
7574;DHT22;3828;48.922;9.116;2022-07-29T12:55:13;27.80;99.90
7574;DHT22;3828;48.922;9.116;2022-07-29T12:57:46;28.40;99.90
7574;DHT22;3828;48.922;9.116;2022-07-29T13:00:14;27.60;99.90
7574;DHT22;3828;48.922;9.116;2022-07-29T13:02:43;27.60;99.90
7574;DHT22;3828;48.922;9.116;2022-07-29T13:05:11;27.80;99.90
7574;DHT22;3828;48.922;9.116;2022-07-29T13:07:39;27.30;99.90
7574;DHT22;3828;48.922;9.116;2022-07-29T13:10:14;28.50;99.90
7574;DHT22;3828;48.922;9.116;2022-07-29T13:13:03;27.60;99.90
7574;DHT22;3828;48.922;9.116;2022-07-29T13:15:30;27.50;99.90
7574;DHT22;3828;48.922;9.116;2022-07-29T13:17:59;27.20;99.90
7574;DHT22;3828;48.922;9.116;2022-07-29T13:20:27;27.00;99.90
7574;DHT22;3828;48.922;9.116;2022-07-29T13:22:55;26.80;99.90
7574;DHT22;3828;48.922;9.116;2022-07-29T13:25:26;27.30;99.90
7574;DHT22;3828;48.922;9.116;2022-07-29T13:27:54;26.50;99.90
7574;DHT22;3828;48.922;9.116;2022-07-29T13:30:21;26.40;99.90
7574;DHT22;3828;48.922;9.116;2022-07-29T13:32:49;26.50;99.90
7574;DHT22;3828;48.922;9.116;2022-07-29T13:35:17;26.50;99.90
7574;DHT22;3828;48.922;9.116;2022-07-29T13:37:45;27.20;99.90
7574;DHT22;3828;48.922;9.116;2022-07-29T13:40:12;26.30;99.90
7574;DHT22;3828;48.922;9.116;2022-07-29T13:42:39;26.40;99.90
7574;DHT22;3828;48.922;9.116;2022-07-29T13:45:09;26.60;99.90
7574;DHT22;3828;48.922;9.116;2022-07-29T13:47:37;26.90;99.90
7574;DHT22;3828;48.922;9.116;2022-07-29T13:50:06;27.20;99.90
7574;DHT22;3828;48.922;9.116;2022-07-29T13:52:37;27.80;99.90
7574;DHT22;3828;48.922;9.116;2022-07-29T13:55:05;28.20;99.90
7574;DHT22;3828;48.922;9.116;2022-07-29T13:57:32;28.50;99.90
7574;DHT22;3828;48.922;9.116;2022-07-29T13:59:58;28.10;99.90
7574;DHT22;3828;48.922;9.116;2022-07-29T14:02:25;28.10;99.90
7574;DHT22;3828;48.922;9.116;2022-07-29T14:04:52;27.70;99.90
7574;DHT22;3828;48.922;9.116;2022-07-29T14:07:19;27.80;99.90
7574;DHT22;3828;48.922;9.116;2022-07-29T14:09:47;27.60;99.90
7574;DHT22;3828;48.922;9.116;2022-07-29T14:12:15;27.50;99.90
7574;DHT22;3828;48.922;9.116;2022-07-29T14:14:42;27.60;99.90
7574;DHT22;3828;48.922;9.116;2022-07-29T14:17:09;27.10;99.90
7574;DHT22;3828;48.922;9.116;2022-07-29T14:19:36;27.40;99.90
7574;DHT22;3828;48.922;9.116;2022-07-29T14:22:04;27.50;99.90
7574;DHT22;3828;48.922;9.116;2022-07-29T14:24:31;27.60;99.90
7574;DHT22;3828;48.922;9.116;2022-07-29T14:26:59;28.30;99.90
7574;DHT22;3828;48.922;9.116;2022-07-29T14:29:26;29.10;99.90
7574;DHT22;3828;48.922;9.116;2022-07-29T14:31:53;27.60;99.90
7574;DHT22;3828;48.922;9.116;2022-07-29T14:34:19;27.60;99.90
7574;DHT22;3828;48.922;9.116;2022-07-29T14:36:46;28.30;99.90
7574;DHT22;3828;48.922;9.116;2022-07-29T14:39:13;27.60;99.90
7574;DHT22;3828;48.922;9.116;2022-07-29T14:41:41;27.60;99.90
7574;DHT22;3828;48.922;9.116;2022-07-29T14:44:09;27.60;99.90
7574;DHT22;3828;48.922;9.116;2022-07-29T14:46:36;27.60;99.90
7574;DHT22;3828;48.922;9.116;2022-07-29T14:49:02;28.40;99.90
7574;DHT22;3828;48.922;9.116;2022-07-29T14:51:29;27.80;99.90
7574;DHT22;3828;48.922;9.116;2022-07-29T14:53:56;28.10;99.90
7574;DHT22;3828;48.922;9.116;2022-07-29T14:56:23;28.90;99.90
7574;DHT22;3828;48.922;9.116;2022-07-29T14:58:50;27.70;99.90
7574;DHT22;3828;48.922;9.116;2022-07-29T15:01:18;27.90;99.90
7574;DHT22;3828;48.922;9.116;2022-07-29T15:03:44;27.60;99.90
7574;DHT22;3828;48.922;9.116;2022-07-29T15:06:11;27.40;99.90
7574;DHT22;3828;48.922;9.116;2022-07-29T15:08:38;27.30;99.90
7574;DHT22;3828;48.922;9.116;2022-07-29T15:11:05;27.40;99.90
7574;DHT22;3828;48.922;9.116;2022-07-29T15:13:32;28.60;99.90
7574;DHT22;3828;48.922;9.116;2022-07-29T15:15:59;28.90;99.90
7574;DHT22;3828;48.922;9.116;2022-07-29T15:18:27;28.50;99.90
7574;DHT22;3828;48.922;9.116;2022-07-29T15:20:54;27.80;99.90
7574;DHT22;3828;48.922;9.116;2022-07-29T15:23:21;27.90;99.90
7574;DHT22;3828;48.922;9.116;2022-07-29T15:25:48;27.70;99.90
7574;DHT22;3828;48.922;9.116;2022-07-29T15:28:15;27.50;99.90
7574;DHT22;3828;48.922;9.116;2022-07-29T15:30:41;27.40;99.90
7574;DHT22;3828;48.922;9.116;2022-07-29T15:33:08;27.40;99.90
7574;DHT22;3828;48.922;9.116;2022-07-29T15:35:37;27.40;99.90
7574;DHT22;3828;48.922;9.116;2022-07-29T15:38:03;28.80;99.90
7574;DHT22;3828;48.922;9.116;2022-07-29T15:40:30;27.30;99.90
7574;DHT22;3828;48.922;9.116;2022-07-29T15:42:57;27.20;99.90
7574;DHT22;3828;48.922;9.116;2022-07-29T15:45:35;29.00;99.90
7574;DHT22;3828;48.922;9.116;2022-07-29T15:48:03;27.30;99.90
7574;DHT22;3828;48.922;9.116;2022-07-29T15:50:30;27.20;99.90
7574;DHT22;3828;48.922;9.116;2022-07-29T15:52:58;27.20;99.90
7574;DHT22;3828;48.922;9.116;2022-07-29T15:55:25;28.50;99.90
7574;DHT22;3828;48.922;9.116;2022-07-29T15:57:52;27.10;99.90
7574;DHT22;3828;48.922;9.116;2022-07-29T16:00:19;27.10;99.90
7574;DHT22;3828;48.922;9.116;2022-07-29T16:02:46;28.60;99.90
7574;DHT22;3828;48.922;9.116;2022-07-29T16:05:13;27.10;99.90
7574;DHT22;3828;48.922;9.116;2022-07-29T16:07:40;27.10;99.90
7574;DHT22;3828;48.922;9.116;2022-07-29T16:10:09;27.10;99.90
7574;DHT22;3828;48.922;9.116;2022-07-29T16:12:35;27.10;99.90
7574;DHT22;3828;48.922;9.116;2022-07-29T16:15:03;27.10;99.90